sensor_id;sensor_type;location;lat;lon;timestamp;temperature;humidity
9776;DHT22;4927;52.472;13.108;2022-08-30T00:03:55;13.80;99.90
9776;DHT22;4927;52.472;13.108;2022-08-30T00:09:01;13.80;99.90
9776;DHT22;4927;52.472;13.108;2022-08-30T00:14:08;13.80;99.90
9776;DHT22;4927;52.472;13.108;2022-08-30T00:19:14;13.70;99.90
9776;DHT22;4927;52.472;13.108;2022-08-30T00:24:25;13.70;99.90
9776;DHT22;4927;52.472;13.108;2022-08-30T00:29:31;13.70;99.90
9776;DHT22;4927;52.472;13.108;2022-08-30T00:34:37;13.70;99.90
9776;DHT22;4927;52.472;13.108;2022-08-30T00:39:43;13.60;99.90
9776;DHT22;4927;52.472;13.108;2022-08-30T00:44:50;13.60;99.90
9776;DHT22;4927;52.472;13.108;2022-08-30T00:49:56;13.50;99.90
9776;DHT22;4927;52.472;13.108;2022-08-30T00:55:05;13.50;99.90
9776;DHT22;4927;52.472;13.108;2022-08-30T01:00:13;13.50;99.90
9776;DHT22;4927;52.472;13.108;2022-08-30T01:05:19;13.50;99.90
9776;DHT22;4927;52.472;13.108;2022-08-30T01:10:23;13.50;99.90
9776;DHT22;4927;52.472;13.108;2022-08-30T01:15:30;13.40;99.90
9776;DHT22;4927;52.472;13.108;2022-08-30T01:20:39;13.40;99.90
9776;DHT22;4927;52.472;13.108;2022-08-30T01:25:44;13.40;99.90
9776;DHT22;4927;52.472;13.108;2022-08-30T01:30:50;13.40;99.90
9776;DHT22;4927;52.472;13.108;2022-08-30T01:35:58;13.40;99.90
9776;DHT22;4927;52.472;13.108;2022-08-30T01:41:10;13.30;99.90
9776;DHT22;4927;52.472;13.108;2022-08-30T01:46:15;13.30;99.90
9776;DHT22;4927;52.472;13.108;2022-08-30T01:51:22;13.40;99.90
9776;DHT22;4927;52.472;13.108;2022-08-30T01:56:27;13.40;99.90
9776;DHT22;4927;52.472;13.108;2022-08-30T02:01:34;13.40;99.90
9776;DHT22;4927;52.472;13.108;2022-08-30T02:06:40;13.40;99.90
9776;DHT22;4927;52.472;13.108;2022-08-30T02:11:46;13.40;99.90
9776;DHT22;4927;52.472;13.108;2022-08-30T02:16:53;13.30;99.90
9776;DHT22;4927;52.472;13.108;2022-08-30T02:22:00;13.30;99.90
9776;DHT22;4927;52.472;13.108;2022-08-30T02:27:07;13.30;99.90
9776;DHT22;4927;52.472;13.108;2022-08-30T02:32:13;13.30;99.90
9776;DHT22;4927;52.472;13.108;2022-08-30T02:37:19;13.20;99.90
9776;DHT22;4927;52.472;13.108;2022-08-30T02:42:26;13.20;99.90
9776;DHT22;4927;52.472;13.108;2022-08-30T02:47:32;13.20;99.90
9776;DHT22;4927;52.472;13.108;2022-08-30T02:52:39;13.20;99.90
9776;DHT22;4927;52.472;13.108;2022-08-30T02:57:45;13.20;99.90
9776;DHT22;4927;52.472;13.108;2022-08-30T03:02:52;13.20;99.90
9776;DHT22;4927;52.472;13.108;2022-08-30T03:07:58;13.20;99.90
9776;DHT22;4927;52.472;13.108;2022-08-30T03:13:05;13.20;99.90
9776;DHT22;4927;52.472;13.108;2022-08-30T03:18:09;13.20;99.90
9776;DHT22;4927;52.472;13.108;2022-08-30T03:23:16;13.20;99.90
9776;DHT22;4927;52.472;13.108;2022-08-30T03:28:22;13.20;99.90
9776;DHT22;4927;52.472;13.108;2022-08-30T03:33:28;13.20;99.90
9776;DHT22;4927;52.472;13.108;2022-08-30T03:38:35;13.30;99.90
9776;DHT22;4927;52.472;13.108;2022-08-30T03:43:41;13.30;99.90
9776;DHT22;4927;52.472;13.108;2022-08-30T03:48:47;13.30;99.90
9776;DHT22;4927;52.472;13.108;2022-08-30T03:53:54;13.30;99.90
9776;DHT22;4927;52.472;13.108;2022-08-30T03:59:00;13.30;99.90
9776;DHT22;4927;52.472;13.108;2022-08-30T04:04:07;13.20;99.90
9776;DHT22;4927;52.472;13.108;2022-08-30T04:09:14;13.20;99.90
9776;DHT22;4927;52.472;13.108;2022-08-30T04:14:20;13.20;99.90
9776;DHT22;4927;52.472;13.108;2022-08-30T04:19:24;13.20;99.90
9776;DHT22;4927;52.472;13.108;2022-08-30T04:24:31;13.30;99.90
9776;DHT22;4927;52.472;13.108;2022-08-30T04:29:37;13.30;99.90
9776;DHT22;4927;52.472;13.108;2022-08-30T04:34:44;13.30;99.90
9776;DHT22;4927;52.472;13.108;2022-08-30T04:39:53;13.30;99.90
9776;DHT22;4927;52.472;13.108;2022-08-30T04:44:57;13.30;99.90
9776;DHT22;4927;52.472;13.108;2022-08-30T04:50:04;13.30;99.90
9776;DHT22;4927;52.472;13.108;2022-08-30T04:55:10;13.30;99.90
9776;DHT22;4927;52.472;13.108;2022-08-30T05:00:17;13.30;99.90
9776;DHT22;4927;52.472;13.108;2022-08-30T05:05:23;13.40;99.90
9776;DHT22;4927;52.472;13.108;2022-08-30T05:10:38;13.50;99.90
9776;DHT22;4927;52.472;13.108;2022-08-30T05:15:44;13.60;99.90
9776;DHT22;4927;52.472;13.108;2022-08-30T05:21:00;13.80;99.90
9776;DHT22;4927;52.472;13.108;2022-08-30T05:25:56;13.90;99.90
9776;DHT22;4927;52.472;13.108;2022-08-30T05:31:09;14.10;99.90
9776;DHT22;4927;52.472;13.108;2022-08-30T05:36:10;14.20;99.90
9776;DHT22;4927;52.472;13.108;2022-08-30T05:41:17;14.30;99.90
9776;DHT22;4927;52.472;13.108;2022-08-30T05:46:22;14.40;99.90
9776;DHT22;4927;52.472;13.108;2022-08-30T05:51:28;14.50;99.90
9776;DHT22;4927;52.472;13.108;2022-08-30T05:56:35;14.60;99.90
9776;DHT22;4927;52.472;13.108;2022-08-30T06:01:42;14.80;99.90
9776;DHT22;4927;52.472;13.108;2022-08-30T06:06:47;15.00;99.90
9776;DHT22;4927;52.472;13.108;2022-08-30T06:11:53;15.20;99.90
9776;DHT22;4927;52.472;13.108;2022-08-30T06:16:59;15.30;99.90
9776;DHT22;4927;52.472;13.108;2022-08-30T06:22:06;15.50;99.90
9776;DHT22;4927;52.472;13.108;2022-08-30T06:27:12;15.60;99.90
9776;DHT22;4927;52.472;13.108;2022-08-30T06:32:18;15.80;99.90
9776;DHT22;4927;52.472;13.108;2022-08-30T06:37:25;16.10;99.90
9776;DHT22;4927;52.472;13.108;2022-08-30T06:42:31;16.30;99.90
9776;DHT22;4927;52.472;13.108;2022-08-30T06:47:38;16.60;99.90
9776;DHT22;4927;52.472;13.108;2022-08-30T06:52:44;16.60;99.90
9776;DHT22;4927;52.472;13.108;2022-08-30T07:00:13;16.80;99.90
9776;DHT22;4927;52.472;13.108;2022-08-30T07:05:19;16.90;99.90
9776;DHT22;4927;52.472;13.108;2022-08-30T07:10:25;16.90;99.90
9776;DHT22;4927;52.472;13.108;2022-08-30T07:15:31;17.10;99.90
9776;DHT22;4927;52.472;13.108;2022-08-30T07:20:38;17.20;99.90
9776;DHT22;4927;52.472;13.108;2022-08-30T07:25:44;17.20;99.90
9776;DHT22;4927;52.472;13.108;2022-08-30T07:30:50;17.50;99.90
9776;DHT22;4927;52.472;13.108;2022-08-30T07:35:58;17.90;99.90
9776;DHT22;4927;52.472;13.108;2022-08-30T07:41:05;17.90;99.90
9776;DHT22;4927;52.472;13.108;2022-08-30T07:46:15;17.90;99.90
9776;DHT22;4927;52.472;13.108;2022-08-30T07:51:23;18.00;99.90
9776;DHT22;4927;52.472;13.108;2022-08-30T07:56:27;18.10;99.90
9776;DHT22;4927;52.472;13.108;2022-08-30T08:01:33;18.10;99.90
9776;DHT22;4927;52.472;13.108;2022-08-30T08:06:40;18.20;99.90
9776;DHT22;4927;52.472;13.108;2022-08-30T08:11:52;18.30;99.90
9776;DHT22;4927;52.472;13.108;2022-08-30T08:16:59;18.40;99.90
9776;DHT22;4927;52.472;13.108;2022-08-30T08:22:05;18.60;99.90
9776;DHT22;4927;52.472;13.108;2022-08-30T08:27:11;18.90;99.90
9776;DHT22;4927;52.472;13.108;2022-08-30T08:32:17;19.10;99.90
9776;DHT22;4927;52.472;13.108;2022-08-30T08:37:24;19.30;99.90
9776;DHT22;4927;52.472;13.108;2022-08-30T08:42:35;19.00;99.90
9776;DHT22;4927;52.472;13.108;2022-08-30T08:47:40;18.40;99.90
9776;DHT22;4927;52.472;13.108;2022-08-30T08:52:54;18.40;99.90
9776;DHT22;4927;52.472;13.108;2022-08-30T08:58:20;18.20;99.90
9776;DHT22;4927;52.472;13.108;2022-08-30T09:03:19;18.40;99.90
9776;DHT22;4927;52.472;13.108;2022-08-30T09:08:24;18.60;99.90
9776;DHT22;4927;52.472;13.108;2022-08-30T09:13:31;18.80;99.90
9776;DHT22;4927;52.472;13.108;2022-08-30T09:18:40;18.80;99.90
9776;DHT22;4927;52.472;13.108;2022-08-30T09:23:47;19.00;99.90
9776;DHT22;4927;52.472;13.108;2022-08-30T09:28:51;19.00;99.90
9776;DHT22;4927;52.472;13.108;2022-08-30T09:34:00;19.00;99.90
9776;DHT22;4927;52.472;13.108;2022-08-30T09:44:28;18.90;99.90
9776;DHT22;4927;52.472;13.108;2022-08-30T09:49:36;19.00;99.90
9776;DHT22;4927;52.472;13.108;2022-08-30T10:00:12;19.10;99.90
9776;DHT22;4927;52.472;13.108;2022-08-30T10:05:21;19.30;99.90
9776;DHT22;4927;52.472;13.108;2022-08-30T10:10:36;19.40;99.90
9776;DHT22;4927;52.472;13.108;2022-08-30T10:15:51;19.50;99.90
9776;DHT22;4927;52.472;13.108;2022-08-30T10:21:16;19.70;99.90
9776;DHT22;4927;52.472;13.108;2022-08-30T10:26:31;19.60;99.90
9776;DHT22;4927;52.472;13.108;2022-08-30T10:31:59;19.60;99.90
9776;DHT22;4927;52.472;13.108;2022-08-30T10:37:07;19.50;99.90
9776;DHT22;4927;52.472;13.108;2022-08-30T10:42:22;19.60;99.90
9776;DHT22;4927;52.472;13.108;2022-08-30T10:52:55;19.60;99.90
9776;DHT22;4927;52.472;13.108;2022-08-30T10:58:00;19.70;99.90
9776;DHT22;4927;52.472;13.108;2022-08-30T11:03:32;20.00;99.90
9776;DHT22;4927;52.472;13.108;2022-08-30T11:14:07;20.50;99.90
9776;DHT22;4927;52.472;13.108;2022-08-30T11:19:19;20.90;99.90
9776;DHT22;4927;52.472;13.108;2022-08-30T11:24:28;21.30;99.90
9776;DHT22;4927;52.472;13.108;2022-08-30T11:29:42;21.70;99.90
9776;DHT22;4927;52.472;13.108;2022-08-30T11:34:57;22.00;99.90
9776;DHT22;4927;52.472;13.108;2022-08-30T11:40:10;22.00;99.90
9776;DHT22;4927;52.472;13.108;2022-08-30T11:45:43;21.80;99.90
9776;DHT22;4927;52.472;13.108;2022-08-30T11:50:52;21.80;99.90
9776;DHT22;4927;52.472;13.108;2022-08-30T12:01:35;22.50;99.90
9776;DHT22;4927;52.472;13.108;2022-08-30T12:06:45;22.60;99.90
9776;DHT22;4927;52.472;13.108;2022-08-30T12:12:07;22.80;99.90
9776;DHT22;4927;52.472;13.108;2022-08-30T12:17:25;22.90;99.90
9776;DHT22;4927;52.472;13.108;2022-08-30T12:22:36;23.00;99.90
9776;DHT22;4927;52.472;13.108;2022-08-30T12:27:43;22.50;99.90
9776;DHT22;4927;52.472;13.108;2022-08-30T12:32:49;22.50;99.90
9776;DHT22;4927;52.472;13.108;2022-08-30T12:37:59;22.40;99.90
9776;DHT22;4927;52.472;13.108;2022-08-30T12:43:06;22.60;99.90
9776;DHT22;4927;52.472;13.108;2022-08-30T12:48:09;22.60;99.90
9776;DHT22;4927;52.472;13.108;2022-08-30T12:53:25;23.10;99.90
9776;DHT22;4927;52.472;13.108;2022-08-30T13:03:53;23.00;99.90
9776;DHT22;4927;52.472;13.108;2022-08-30T13:08:58;23.00;99.90
9776;DHT22;4927;52.472;13.108;2022-08-30T13:19:40;23.10;99.90
9776;DHT22;4927;52.472;13.108;2022-08-30T13:24:45;22.70;99.90
9776;DHT22;4927;52.472;13.108;2022-08-30T13:29:51;22.30;99.90
9776;DHT22;4927;52.472;13.108;2022-08-30T13:34:57;22.50;99.90
9776;DHT22;4927;52.472;13.108;2022-08-30T13:40:04;22.50;99.90
9776;DHT22;4927;52.472;13.108;2022-08-30T13:45:12;22.50;99.90
9776;DHT22;4927;52.472;13.108;2022-08-30T13:50:18;22.50;99.90
9776;DHT22;4927;52.472;13.108;2022-08-30T13:55:24;22.70;99.90
9776;DHT22;4927;52.472;13.108;2022-08-30T14:05:07;22.40;99.90
9776;DHT22;4927;52.472;13.108;2022-08-30T14:10:13;22.40;99.90
9776;DHT22;4927;52.472;13.108;2022-08-30T14:15:20;22.40;99.90
9776;DHT22;4927;52.472;13.108;2022-08-30T14:20:27;22.30;99.90
9776;DHT22;4927;52.472;13.108;2022-08-30T14:25:33;22.30;99.90
9776;DHT22;4927;52.472;13.108;2022-08-30T14:30:39;22.40;99.90
9776;DHT22;4927;52.472;13.108;2022-08-30T14:35:45;22.20;99.90
9776;DHT22;4927;52.472;13.108;2022-08-30T14:40:52;21.90;99.90
9776;DHT22;4927;52.472;13.108;2022-08-30T14:45:58;21.90;99.90
9776;DHT22;4927;52.472;13.108;2022-08-30T14:51:14;21.90;99.90
9776;DHT22;4927;52.472;13.108;2022-08-30T14:56:19;21.80;99.90
9776;DHT22;4927;52.472;13.108;2022-08-30T15:01:29;21.70;99.90
9776;DHT22;4927;52.472;13.108;2022-08-30T15:06:35;21.50;99.90
9776;DHT22;4927;52.472;13.108;2022-08-30T15:11:46;21.30;99.90
9776;DHT22;4927;52.472;13.108;2022-08-30T15:16:52;21.20;99.90
9776;DHT22;4927;52.472;13.108;2022-08-30T15:22:00;21.20;99.90
9776;DHT22;4927;52.472;13.108;2022-08-30T15:27:05;21.10;99.90
9776;DHT22;4927;52.472;13.108;2022-08-30T15:32:12;21.10;99.90
9776;DHT22;4927;52.472;13.108;2022-08-30T15:37:18;21.10;99.90
9776;DHT22;4927;52.472;13.108;2022-08-30T15:42:24;21.10;99.90
9776;DHT22;4927;52.472;13.108;2022-08-30T15:47:31;21.20;99.90
9776;DHT22;4927;52.472;13.108;2022-08-30T15:52:37;21.20;99.90
9776;DHT22;4927;52.472;13.108;2022-08-30T15:57:43;21.10;99.90
9776;DHT22;4927;52.472;13.108;2022-08-30T16:02:49;21.00;99.90
9776;DHT22;4927;52.472;13.108;2022-08-30T16:07:56;21.00;99.90
9776;DHT22;4927;52.472;13.108;2022-08-30T16:13:02;20.90;99.90
9776;DHT22;4927;52.472;13.108;2022-08-30T16:18:09;20.90;99.90
9776;DHT22;4927;52.472;13.108;2022-08-30T16:23:15;20.80;99.90
9776;DHT22;4927;52.472;13.108;2022-08-30T16:28:22;20.80;99.90
9776;DHT22;4927;52.472;13.108;2022-08-30T16:33:28;20.80;99.90
9776;DHT22;4927;52.472;13.108;2022-08-30T16:38:35;20.70;99.90
9776;DHT22;4927;52.472;13.108;2022-08-30T16:43:40;20.70;99.90
9776;DHT22;4927;52.472;13.108;2022-08-30T16:48:47;20.70;99.90
9776;DHT22;4927;52.472;13.108;2022-08-30T16:53:53;20.70;99.90
9776;DHT22;4927;52.472;13.108;2022-08-30T16:58:58;20.60;99.90
9776;DHT22;4927;52.472;13.108;2022-08-30T17:04:04;20.60;99.90
9776;DHT22;4927;52.472;13.108;2022-08-30T17:09:10;20.60;99.90
9776;DHT22;4927;52.472;13.108;2022-08-30T17:14:16;20.60;99.90
9776;DHT22;4927;52.472;13.108;2022-08-30T17:19:22;20.30;99.90
9776;DHT22;4927;52.472;13.108;2022-08-30T17:24:29;20.30;99.90
9776;DHT22;4927;52.472;13.108;2022-08-30T17:29:35;20.20;99.90
9776;DHT22;4927;52.472;13.108;2022-08-30T17:34:41;20.00;99.90
9776;DHT22;4927;52.472;13.108;2022-08-30T17:39:48;19.80;99.90
9776;DHT22;4927;52.472;13.108;2022-08-30T17:44:54;19.60;99.90
9776;DHT22;4927;52.472;13.108;2022-08-30T17:50:00;19.50;99.90
9776;DHT22;4927;52.472;13.108;2022-08-30T17:55:06;19.50;99.90
9776;DHT22;4927;52.472;13.108;2022-08-30T18:00:13;19.40;99.90
9776;DHT22;4927;52.472;13.108;2022-08-30T18:05:19;19.30;99.90
9776;DHT22;4927;52.472;13.108;2022-08-30T18:10:25;19.10;99.90
9776;DHT22;4927;52.472;13.108;2022-08-30T18:15:32;19.00;99.90
9776;DHT22;4927;52.472;13.108;2022-08-30T18:20:38;19.00;99.90
9776;DHT22;4927;52.472;13.108;2022-08-30T18:25:52;18.80;99.90
9776;DHT22;4927;52.472;13.108;2022-08-30T18:30:57;18.70;99.90
9776;DHT22;4927;52.472;13.108;2022-08-30T18:36:03;18.60;99.90
9776;DHT22;4927;52.472;13.108;2022-08-30T18:41:10;18.60;99.90
9776;DHT22;4927;52.472;13.108;2022-08-30T18:46:17;18.50;99.90
9776;DHT22;4927;52.472;13.108;2022-08-30T18:51:23;18.40;99.90
9776;DHT22;4927;52.472;13.108;2022-08-30T18:56:29;18.40;99.90
9776;DHT22;4927;52.472;13.108;2022-08-30T19:01:35;18.30;99.90
9776;DHT22;4927;52.472;13.108;2022-08-30T19:06:42;18.20;99.90
9776;DHT22;4927;52.472;13.108;2022-08-30T19:11:48;18.20;99.90
9776;DHT22;4927;52.472;13.108;2022-08-30T19:16:55;17.90;99.90
9776;DHT22;4927;52.472;13.108;2022-08-30T19:22:01;17.90;99.90
9776;DHT22;4927;52.472;13.108;2022-08-30T19:27:09;17.80;99.90
9776;DHT22;4927;52.472;13.108;2022-08-30T19:32:13;17.80;99.90
9776;DHT22;4927;52.472;13.108;2022-08-30T19:37:20;17.70;99.90
9776;DHT22;4927;52.472;13.108;2022-08-30T19:42:26;17.60;99.90
9776;DHT22;4927;52.472;13.108;2022-08-30T19:47:33;17.50;99.90
9776;DHT22;4927;52.472;13.108;2022-08-30T19:52:39;17.40;99.90
9776;DHT22;4927;52.472;13.108;2022-08-30T19:57:45;17.20;99.90
9776;DHT22;4927;52.472;13.108;2022-08-30T20:02:51;17.10;99.90
9776;DHT22;4927;52.472;13.108;2022-08-30T20:07:58;16.90;99.90
9776;DHT22;4927;52.472;13.108;2022-08-30T20:13:04;16.80;99.90
9776;DHT22;4927;52.472;13.108;2022-08-30T20:18:10;16.70;99.90
9776;DHT22;4927;52.472;13.108;2022-08-30T20:23:17;16.60;99.90
9776;DHT22;4927;52.472;13.108;2022-08-30T20:30:36;16.50;99.90
9776;DHT22;4927;52.472;13.108;2022-08-30T20:35:42;16.40;99.90
9776;DHT22;4927;52.472;13.108;2022-08-30T20:40:50;16.40;99.90
9776;DHT22;4927;52.472;13.108;2022-08-30T20:45:55;16.30;99.90
9776;DHT22;4927;52.472;13.108;2022-08-30T20:51:02;16.30;99.90
9776;DHT22;4927;52.472;13.108;2022-08-30T20:56:12;16.10;99.90
9776;DHT22;4927;52.472;13.108;2022-08-30T21:01:18;16.10;99.90
9776;DHT22;4927;52.472;13.108;2022-08-30T21:06:24;16.00;99.90
9776;DHT22;4927;52.472;13.108;2022-08-30T21:11:31;15.90;99.90
9776;DHT22;4927;52.472;13.108;2022-08-30T21:16:36;15.80;99.90
9776;DHT22;4927;52.472;13.108;2022-08-30T21:21:41;15.70;99.90
9776;DHT22;4927;52.472;13.108;2022-08-30T21:26:47;15.70;99.90
9776;DHT22;4927;52.472;13.108;2022-08-30T21:31:53;15.70;99.90
9776;DHT22;4927;52.472;13.108;2022-08-30T21:36:59;15.70;99.90
9776;DHT22;4927;52.472;13.108;2022-08-30T21:42:06;15.80;99.90
9776;DHT22;4927;52.472;13.108;2022-08-30T21:47:13;15.80;99.90
9776;DHT22;4927;52.472;13.108;2022-08-30T21:52:19;15.90;99.90
9776;DHT22;4927;52.472;13.108;2022-08-30T21:57:26;15.90;99.90
9776;DHT22;4927;52.472;13.108;2022-08-30T22:02:31;15.90;99.90
9776;DHT22;4927;52.472;13.108;2022-08-30T22:07:38;15.80;99.90
9776;DHT22;4927;52.472;13.108;2022-08-30T22:12:44;15.70;99.90
9776;DHT22;4927;52.472;13.108;2022-08-30T22:17:50;15.70;99.90
9776;DHT22;4927;52.472;13.108;2022-08-30T22:22:57;15.60;99.90
9776;DHT22;4927;52.472;13.108;2022-08-30T22:28:03;15.60;99.90
9776;DHT22;4927;52.472;13.108;2022-08-30T22:33:09;15.50;99.90
9776;DHT22;4927;52.472;13.108;2022-08-30T22:38:15;15.50;99.90
9776;DHT22;4927;52.472;13.108;2022-08-30T22:43:20;15.40;99.90
9776;DHT22;4927;52.472;13.108;2022-08-30T22:48:27;15.40;99.90
9776;DHT22;4927;52.472;13.108;2022-08-30T22:53:33;15.30;99.90
9776;DHT22;4927;52.472;13.108;2022-08-30T22:58:39;15.20;99.90
9776;DHT22;4927;52.472;13.108;2022-08-30T23:03:46;15.10;99.90
9776;DHT22;4927;52.472;13.108;2022-08-30T23:08:52;15.00;99.90
9776;DHT22;4927;52.472;13.108;2022-08-30T23:13:58;14.90;99.90
9776;DHT22;4927;52.472;13.108;2022-08-30T23:19:04;14.90;99.90
9776;DHT22;4927;52.472;13.108;2022-08-30T23:24:11;14.80;99.90
9776;DHT22;4927;52.472;13.108;2022-08-30T23:29:24;14.70;99.90
9776;DHT22;4927;52.472;13.108;2022-08-30T23:34:36;14.70;99.90
9776;DHT22;4927;52.472;13.108;2022-08-30T23:39:49;14.60;99.90
9776;DHT22;4927;52.472;13.108;2022-08-30T23:45:01;14.50;99.90
9776;DHT22;4927;52.472;13.108;2022-08-30T23:50:12;14.30;99.90
9776;DHT22;4927;52.472;13.108;2022-08-30T23:55:25;14.30;99.90
